sensor_id;sensor_type;location;lat;lon;timestamp;temperature;humidity
3037;DHT22;1528;52.550;13.408;2022-11-15T00:01:45;8.90;39.00
3037;DHT22;1528;52.550;13.408;2022-11-15T00:04:33;8.90;39.00
3037;DHT22;1528;52.550;13.408;2022-11-15T00:08:02;8.90;39.10
3037;DHT22;1528;52.550;13.408;2022-11-15T00:11:05;8.90;39.20
3037;DHT22;1528;52.550;13.408;2022-11-15T00:18:21;8.80;39.40
3037;DHT22;1528;52.550;13.408;2022-11-15T00:21:10;8.80;39.20
3037;DHT22;1528;52.550;13.408;2022-11-15T00:23:58;8.70;39.40
3037;DHT22;1528;52.550;13.408;2022-11-15T00:26:43;8.70;39.50
3037;DHT22;1528;52.550;13.408;2022-11-15T00:29:29;8.80;39.50
3037;DHT22;1528;52.550;13.408;2022-11-15T00:32:15;8.80;39.50
3037;DHT22;1528;52.550;13.408;2022-11-15T00:35:00;8.70;39.20
3037;DHT22;1528;52.550;13.408;2022-11-15T00:37:45;8.70;39.50
3037;DHT22;1528;52.550;13.408;2022-11-15T00:40:33;8.70;39.20
3037;DHT22;1528;52.550;13.408;2022-11-15T00:43:18;8.70;39.50
3037;DHT22;1528;52.550;13.408;2022-11-15T00:46:04;8.60;39.40
3037;DHT22;1528;52.550;13.408;2022-11-15T00:48:49;8.60;39.40
3037;DHT22;1528;52.550;13.408;2022-11-15T00:51:35;8.60;39.30
3037;DHT22;1528;52.550;13.408;2022-11-15T00:54:21;8.70;39.50
3037;DHT22;1528;52.550;13.408;2022-11-15T00:57:08;8.60;39.60
3037;DHT22;1528;52.550;13.408;2022-11-15T00:59:53;8.50;39.10
3037;DHT22;1528;52.550;13.408;2022-11-15T01:02:39;8.50;39.60
3037;DHT22;1528;52.550;13.408;2022-11-15T01:05:24;8.70;39.50
3037;DHT22;1528;52.550;13.408;2022-11-15T01:08:12;8.30;39.80
3037;DHT22;1528;52.550;13.408;2022-11-15T01:11:01;8.30;40.00
3037;DHT22;1528;52.550;13.408;2022-11-15T01:13:48;8.40;40.00
3037;DHT22;1528;52.550;13.408;2022-11-15T01:16:33;8.40;39.70
3037;DHT22;1528;52.550;13.408;2022-11-15T01:19:19;8.50;39.40
3037;DHT22;1528;52.550;13.408;2022-11-15T01:22:04;8.50;39.40
3037;DHT22;1528;52.550;13.408;2022-11-15T01:24:50;8.50;39.30
3037;DHT22;1528;52.550;13.408;2022-11-15T01:27:36;8.50;39.30
3037;DHT22;1528;52.550;13.408;2022-11-15T01:30:23;8.50;39.30
3037;DHT22;1528;52.550;13.408;2022-11-15T01:33:08;8.50;39.30
3037;DHT22;1528;52.550;13.408;2022-11-15T01:35:54;8.40;39.50
3037;DHT22;1528;52.550;13.408;2022-11-15T01:38:41;8.40;39.50
3037;DHT22;1528;52.550;13.408;2022-11-15T01:41:28;8.40;39.20
3037;DHT22;1528;52.550;13.408;2022-11-15T01:44:46;8.40;39.30
3037;DHT22;1528;52.550;13.408;2022-11-15T01:47:38;8.40;39.50
3037;DHT22;1528;52.550;13.408;2022-11-15T01:50:27;8.40;39.50
3037;DHT22;1528;52.550;13.408;2022-11-15T01:53:14;8.40;39.50
3037;DHT22;1528;52.550;13.408;2022-11-15T01:56:02;8.40;39.30
3037;DHT22;1528;52.550;13.408;2022-11-15T01:58:50;8.40;39.50
3037;DHT22;1528;52.550;13.408;2022-11-15T02:01:36;8.40;39.20
3037;DHT22;1528;52.550;13.408;2022-11-15T02:04:25;8.40;39.10
3037;DHT22;1528;52.550;13.408;2022-11-15T02:07:15;8.50;39.30
3037;DHT22;1528;52.550;13.408;2022-11-15T02:10:04;8.40;39.30
3037;DHT22;1528;52.550;13.408;2022-11-15T02:12:52;8.40;39.20
3037;DHT22;1528;52.550;13.408;2022-11-15T02:15:44;8.40;39.20
3037;DHT22;1528;52.550;13.408;2022-11-15T02:18:37;8.40;39.50
3037;DHT22;1528;52.550;13.408;2022-11-15T02:21:29;8.30;39.30
3037;DHT22;1528;52.550;13.408;2022-11-15T02:24:51;8.40;39.40
3037;DHT22;1528;52.550;13.408;2022-11-15T02:27:58;8.40;39.20
3037;DHT22;1528;52.550;13.408;2022-11-15T02:30:47;8.40;39.20
3037;DHT22;1528;52.550;13.408;2022-11-15T02:33:41;8.40;39.20
3037;DHT22;1528;52.550;13.408;2022-11-15T02:36:35;8.50;39.30
3037;DHT22;1528;52.550;13.408;2022-11-15T02:39:30;8.30;39.10
3037;DHT22;1528;52.550;13.408;2022-11-15T02:42:23;8.40;39.30
3037;DHT22;1528;52.550;13.408;2022-11-15T02:45:29;8.30;39.10
3037;DHT22;1528;52.550;13.408;2022-11-15T02:48:18;8.30;39.40
3037;DHT22;1528;52.550;13.408;2022-11-15T02:51:04;8.50;39.50
3037;DHT22;1528;52.550;13.408;2022-11-15T02:53:51;8.30;39.70
3037;DHT22;1528;52.550;13.408;2022-11-15T02:56:36;8.30;39.50
3037;DHT22;1528;52.550;13.408;2022-11-15T02:59:43;8.40;39.40
3037;DHT22;1528;52.550;13.408;2022-11-15T03:06:07;8.40;39.20
3037;DHT22;1528;52.550;13.408;2022-11-15T03:09:02;8.50;39.10
3037;DHT22;1528;52.550;13.408;2022-11-15T03:11:53;8.50;39.10
3037;DHT22;1528;52.550;13.408;2022-11-15T03:14:47;8.50;39.10
3037;DHT22;1528;52.550;13.408;2022-11-15T03:17:40;8.50;39.10
3037;DHT22;1528;52.550;13.408;2022-11-15T03:20:27;8.50;39.10
3037;DHT22;1528;52.550;13.408;2022-11-15T03:23:14;8.50;39.10
3037;DHT22;1528;52.550;13.408;2022-11-15T03:26:00;8.50;39.70
3037;DHT22;1528;52.550;13.408;2022-11-15T03:28:49;8.40;39.10
3037;DHT22;1528;52.550;13.408;2022-11-15T03:31:38;8.40;39.20
3037;DHT22;1528;52.550;13.408;2022-11-15T03:34:38;8.40;39.20
3037;DHT22;1528;52.550;13.408;2022-11-15T03:37:29;8.40;39.20
3037;DHT22;1528;52.550;13.408;2022-11-15T03:40:24;8.40;39.30
3037;DHT22;1528;52.550;13.408;2022-11-15T03:43:15;8.40;39.40
3037;DHT22;1528;52.550;13.408;2022-11-15T03:46:06;8.40;39.20
3037;DHT22;1528;52.550;13.408;2022-11-15T03:48:56;8.40;39.20
3037;DHT22;1528;52.550;13.408;2022-11-15T03:51:44;8.40;39.20
3037;DHT22;1528;52.550;13.408;2022-11-15T03:54:30;8.50;39.30
3037;DHT22;1528;52.550;13.408;2022-11-15T03:57:16;8.40;39.40
3037;DHT22;1528;52.550;13.408;2022-11-15T04:00:03;8.50;39.30
3037;DHT22;1528;52.550;13.408;2022-11-15T04:02:48;8.50;39.30
3037;DHT22;1528;52.550;13.408;2022-11-15T04:05:34;8.50;39.20
3037;DHT22;1528;52.550;13.408;2022-11-15T04:08:20;8.50;39.10
3037;DHT22;1528;52.550;13.408;2022-11-15T04:11:05;8.50;39.30
3037;DHT22;1528;52.550;13.408;2022-11-15T04:13:52;8.70;39.30
3037;DHT22;1528;52.550;13.408;2022-11-15T04:16:37;8.60;39.00
3037;DHT22;1528;52.550;13.408;2022-11-15T04:19:23;8.50;39.10
3037;DHT22;1528;52.550;13.408;2022-11-15T04:22:26;8.60;39.20
3037;DHT22;1528;52.550;13.408;2022-11-15T04:25:31;8.60;38.90
3037;DHT22;1528;52.550;13.408;2022-11-15T04:28:16;8.50;39.60
3037;DHT22;1528;52.550;13.408;2022-11-15T04:31:03;8.60;39.10
3037;DHT22;1528;52.550;13.408;2022-11-15T04:33:49;8.60;38.60
3037;DHT22;1528;52.550;13.408;2022-11-15T04:36:34;8.60;38.60
3037;DHT22;1528;52.550;13.408;2022-11-15T04:39:37;8.60;38.80
3037;DHT22;1528;52.550;13.408;2022-11-15T04:42:23;8.60;38.70
3037;DHT22;1528;52.550;13.408;2022-11-15T04:45:09;8.60;38.60
3037;DHT22;1528;52.550;13.408;2022-11-15T04:47:56;8.50;39.80
3037;DHT22;1528;52.550;13.408;2022-11-15T04:50:41;8.60;39.00
3037;DHT22;1528;52.550;13.408;2022-11-15T04:53:27;8.60;38.80
3037;DHT22;1528;52.550;13.408;2022-11-15T04:56:13;8.60;39.10
3037;DHT22;1528;52.550;13.408;2022-11-15T04:58:58;8.70;38.80
3037;DHT22;1528;52.550;13.408;2022-11-15T05:01:44;8.70;38.70
3037;DHT22;1528;52.550;13.408;2022-11-15T05:04:31;8.70;38.60
3037;DHT22;1528;52.550;13.408;2022-11-15T05:07:15;8.60;38.50
3037;DHT22;1528;52.550;13.408;2022-11-15T05:10:01;8.60;38.60
3037;DHT22;1528;52.550;13.408;2022-11-15T05:12:47;8.60;38.40
3037;DHT22;1528;52.550;13.408;2022-11-15T05:15:32;8.70;38.40
3037;DHT22;1528;52.550;13.408;2022-11-15T05:18:18;8.70;38.30
3037;DHT22;1528;52.550;13.408;2022-11-15T05:21:05;8.60;38.20
3037;DHT22;1528;52.550;13.408;2022-11-15T05:23:51;8.60;38.20
3037;DHT22;1528;52.550;13.408;2022-11-15T05:26:37;8.70;38.60
3037;DHT22;1528;52.550;13.408;2022-11-15T05:29:22;8.60;38.30
3037;DHT22;1528;52.550;13.408;2022-11-15T05:32:09;8.70;38.40
3037;DHT22;1528;52.550;13.408;2022-11-15T05:34:56;8.60;38.10
3037;DHT22;1528;52.550;13.408;2022-11-15T05:37:43;8.60;38.40
3037;DHT22;1528;52.550;13.408;2022-11-15T05:40:30;8.60;38.30
3037;DHT22;1528;52.550;13.408;2022-11-15T05:43:16;8.60;38.20
3037;DHT22;1528;52.550;13.408;2022-11-15T05:46:02;8.60;38.40
3037;DHT22;1528;52.550;13.408;2022-11-15T05:48:49;8.60;38.40
3037;DHT22;1528;52.550;13.408;2022-11-15T05:51:36;8.70;38.50
3037;DHT22;1528;52.550;13.408;2022-11-15T05:54:25;8.60;38.30
3037;DHT22;1528;52.550;13.408;2022-11-15T05:57:10;8.60;38.30
3037;DHT22;1528;52.550;13.408;2022-11-15T05:59:55;8.70;38.40
3037;DHT22;1528;52.550;13.408;2022-11-15T06:02:41;8.70;39.00
3037;DHT22;1528;52.550;13.408;2022-11-15T06:05:27;8.60;38.10
3037;DHT22;1528;52.550;13.408;2022-11-15T06:08:12;8.60;38.20
3037;DHT22;1528;52.550;13.408;2022-11-15T06:11:04;8.60;38.20
3037;DHT22;1528;52.550;13.408;2022-11-15T06:13:50;8.60;38.20
3037;DHT22;1528;52.550;13.408;2022-11-15T06:16:35;8.60;38.30
3037;DHT22;1528;52.550;13.408;2022-11-15T06:19:21;8.70;38.50
3037;DHT22;1528;52.550;13.408;2022-11-15T06:22:06;8.60;38.40
3037;DHT22;1528;52.550;13.408;2022-11-15T06:24:53;8.60;38.30
3037;DHT22;1528;52.550;13.408;2022-11-15T06:27:40;8.60;38.10
3037;DHT22;1528;52.550;13.408;2022-11-15T06:30:26;8.70;38.20
3037;DHT22;1528;52.550;13.408;2022-11-15T06:33:11;8.60;37.90
3037;DHT22;1528;52.550;13.408;2022-11-15T06:36:00;8.60;38.00
3037;DHT22;1528;52.550;13.408;2022-11-15T06:38:45;8.60;38.20
3037;DHT22;1528;52.550;13.408;2022-11-15T06:41:33;8.50;38.00
3037;DHT22;1528;52.550;13.408;2022-11-15T06:44:20;8.50;38.30
3037;DHT22;1528;52.550;13.408;2022-11-15T06:47:06;8.50;38.30
3037;DHT22;1528;52.550;13.408;2022-11-15T06:49:51;8.50;38.60
3037;DHT22;1528;52.550;13.408;2022-11-15T06:52:36;8.50;38.30
3037;DHT22;1528;52.550;13.408;2022-11-15T06:55:22;8.60;38.40
3037;DHT22;1528;52.550;13.408;2022-11-15T06:58:08;8.60;38.10
3037;DHT22;1528;52.550;13.408;2022-11-15T07:00:58;8.60;38.90
3037;DHT22;1528;52.550;13.408;2022-11-15T07:03:44;8.60;38.30
3037;DHT22;1528;52.550;13.408;2022-11-15T07:06:30;8.60;38.30
3037;DHT22;1528;52.550;13.408;2022-11-15T07:09:15;8.70;38.70
3037;DHT22;1528;52.550;13.408;2022-11-15T07:12:01;8.60;38.40
3037;DHT22;1528;52.550;13.408;2022-11-15T07:14:47;8.70;38.20
3037;DHT22;1528;52.550;13.408;2022-11-15T07:17:34;8.90;38.40
3037;DHT22;1528;52.550;13.408;2022-11-15T07:20:19;8.70;38.40
3037;DHT22;1528;52.550;13.408;2022-11-15T07:23:05;8.70;38.30
3037;DHT22;1528;52.550;13.408;2022-11-15T07:25:51;8.70;38.30
3037;DHT22;1528;52.550;13.408;2022-11-15T07:28:36;8.80;38.40
3037;DHT22;1528;52.550;13.408;2022-11-15T07:31:22;8.90;38.20
3037;DHT22;1528;52.550;13.408;2022-11-15T07:34:09;8.90;38.20
3037;DHT22;1528;52.550;13.408;2022-11-15T07:36:54;8.90;37.90
3037;DHT22;1528;52.550;13.408;2022-11-15T07:39:40;8.90;37.80
3037;DHT22;1528;52.550;13.408;2022-11-15T07:42:25;8.90;38.10
3037;DHT22;1528;52.550;13.408;2022-11-15T07:45:41;9.10;38.10
3037;DHT22;1528;52.550;13.408;2022-11-15T07:48:27;8.90;37.90
3037;DHT22;1528;52.550;13.408;2022-11-15T07:51:15;9.00;37.80
3037;DHT22;1528;52.550;13.408;2022-11-15T07:54:00;9.00;37.90
3037;DHT22;1528;52.550;13.408;2022-11-15T07:56:46;9.00;38.20
3037;DHT22;1528;52.550;13.408;2022-11-15T07:59:35;9.10;38.10
3037;DHT22;1528;52.550;13.408;2022-11-15T08:02:20;9.10;38.10
3037;DHT22;1528;52.550;13.408;2022-11-15T08:05:06;9.20;38.10
3037;DHT22;1528;52.550;13.408;2022-11-15T08:07:55;9.30;38.20
3037;DHT22;1528;52.550;13.408;2022-11-15T08:10:40;9.40;37.90
3037;DHT22;1528;52.550;13.408;2022-11-15T08:13:26;9.50;37.70
3037;DHT22;1528;52.550;13.408;2022-11-15T08:16:12;9.50;37.70
3037;DHT22;1528;52.550;13.408;2022-11-15T08:18:57;9.60;37.70
3037;DHT22;1528;52.550;13.408;2022-11-15T08:21:43;9.70;37.50
3037;DHT22;1528;52.550;13.408;2022-11-15T08:24:30;9.70;37.30
3037;DHT22;1528;52.550;13.408;2022-11-15T08:27:15;9.70;37.50
3037;DHT22;1528;52.550;13.408;2022-11-15T08:30:01;9.60;37.70
3037;DHT22;1528;52.550;13.408;2022-11-15T08:32:46;9.60;37.50
3037;DHT22;1528;52.550;13.408;2022-11-15T08:35:32;9.80;37.40
3037;DHT22;1528;52.550;13.408;2022-11-15T08:38:17;9.90;37.20
3037;DHT22;1528;52.550;13.408;2022-11-15T08:41:05;9.80;37.00
3037;DHT22;1528;52.550;13.408;2022-11-15T08:43:51;9.90;37.20
3037;DHT22;1528;52.550;13.408;2022-11-15T08:46:36;10.00;36.10
3037;DHT22;1528;52.550;13.408;2022-11-15T08:49:22;10.00;36.50
3037;DHT22;1528;52.550;13.408;2022-11-15T08:52:07;10.00;36.10
3037;DHT22;1528;52.550;13.408;2022-11-15T08:54:53;10.00;36.00
3037;DHT22;1528;52.550;13.408;2022-11-15T08:57:40;10.10;35.70
3037;DHT22;1528;52.550;13.408;2022-11-15T09:00:25;10.40;34.90
3037;DHT22;1528;52.550;13.408;2022-11-15T09:03:11;10.20;35.30
3037;DHT22;1528;52.550;13.408;2022-11-15T09:05:57;10.20;35.40
3037;DHT22;1528;52.550;13.408;2022-11-15T09:08:42;10.50;35.30
3037;DHT22;1528;52.550;13.408;2022-11-15T09:11:28;10.40;35.70
3037;DHT22;1528;52.550;13.408;2022-11-15T09:14:15;10.50;35.40
3037;DHT22;1528;52.550;13.408;2022-11-15T09:17:01;10.60;34.90
3037;DHT22;1528;52.550;13.408;2022-11-15T09:19:47;10.50;35.20
3037;DHT22;1528;52.550;13.408;2022-11-15T09:22:32;10.40;35.20
3037;DHT22;1528;52.550;13.408;2022-11-15T09:25:18;10.50;35.20
3037;DHT22;1528;52.550;13.408;2022-11-15T09:28:06;10.60;34.90
3037;DHT22;1528;52.550;13.408;2022-11-15T09:30:56;10.80;34.30
3037;DHT22;1528;52.550;13.408;2022-11-15T09:33:43;10.80;34.40
3037;DHT22;1528;52.550;13.408;2022-11-15T09:36:30;10.80;34.20
3037;DHT22;1528;52.550;13.408;2022-11-15T09:39:15;11.00;34.50
3037;DHT22;1528;52.550;13.408;2022-11-15T09:42:20;11.10;33.90
3037;DHT22;1528;52.550;13.408;2022-11-15T09:45:15;11.00;34.20
3037;DHT22;1528;52.550;13.408;2022-11-15T09:48:31;11.30;33.20
3037;DHT22;1528;52.550;13.408;2022-11-15T09:51:25;11.20;33.70
3037;DHT22;1528;52.550;13.408;2022-11-15T09:54:16;11.30;33.60
3037;DHT22;1528;52.550;13.408;2022-11-15T09:57:06;11.40;33.50
3037;DHT22;1528;52.550;13.408;2022-11-15T10:00:09;11.50;33.60
3037;DHT22;1528;52.550;13.408;2022-11-15T10:03:08;11.70;33.20
3037;DHT22;1528;52.550;13.408;2022-11-15T10:05:59;11.90;33.20
3037;DHT22;1528;52.550;13.408;2022-11-15T10:08:51;12.00;32.20
3037;DHT22;1528;52.550;13.408;2022-11-15T10:11:40;12.00;31.90
3037;DHT22;1528;52.550;13.408;2022-11-15T10:14:28;11.90;32.60
3037;DHT22;1528;52.550;13.408;2022-11-15T10:17:38;11.90;32.50
3037;DHT22;1528;52.550;13.408;2022-11-15T10:20:28;12.00;32.80
3037;DHT22;1528;52.550;13.408;2022-11-15T10:23:18;12.00;32.10
3037;DHT22;1528;52.550;13.408;2022-11-15T10:26:08;12.10;32.20
3037;DHT22;1528;52.550;13.408;2022-11-15T10:28:56;12.10;32.20
3037;DHT22;1528;52.550;13.408;2022-11-15T10:31:41;12.10;32.20
3037;DHT22;1528;52.550;13.408;2022-11-15T10:34:27;12.10;32.50
3037;DHT22;1528;52.550;13.408;2022-11-15T10:37:12;12.20;32.00
3037;DHT22;1528;52.550;13.408;2022-11-15T10:40:14;12.10;32.20
3037;DHT22;1528;52.550;13.408;2022-11-15T10:43:16;12.10;32.50
3037;DHT22;1528;52.550;13.408;2022-11-15T10:46:18;12.40;32.00
3037;DHT22;1528;52.550;13.408;2022-11-15T10:56:27;12.50;32.00
3037;DHT22;1528;52.550;13.408;2022-11-15T10:59:15;12.60;31.60
3037;DHT22;1528;52.550;13.408;2022-11-15T11:02:30;12.60;31.60
3037;DHT22;1528;52.550;13.408;2022-11-15T11:05:27;12.70;31.00
3037;DHT22;1528;52.550;13.408;2022-11-15T11:08:22;12.80;31.50
3037;DHT22;1528;52.550;13.408;2022-11-15T11:11:08;12.80;31.50
3037;DHT22;1528;52.550;13.408;2022-11-15T11:14:11;12.80;31.50
3037;DHT22;1528;52.550;13.408;2022-11-15T11:17:02;13.00;31.00
3037;DHT22;1528;52.550;13.408;2022-11-15T11:19:59;13.10;30.80
3037;DHT22;1528;52.550;13.408;2022-11-15T11:23:04;13.20;30.30
3037;DHT22;1528;52.550;13.408;2022-11-15T11:26:01;13.20;30.80
3037;DHT22;1528;52.550;13.408;2022-11-15T11:28:59;13.10;31.10
3037;DHT22;1528;52.550;13.408;2022-11-15T11:31:55;13.30;30.80
3037;DHT22;1528;52.550;13.408;2022-11-15T11:34:49;13.30;31.50
3037;DHT22;1528;52.550;13.408;2022-11-15T11:37:44;13.30;31.10
3037;DHT22;1528;52.550;13.408;2022-11-15T11:40:34;13.30;30.80
3037;DHT22;1528;52.550;13.408;2022-11-15T11:43:27;13.30;30.70
3037;DHT22;1528;52.550;13.408;2022-11-15T11:46:32;13.30;30.70
3037;DHT22;1528;52.550;13.408;2022-11-15T11:49:26;13.50;30.40
3037;DHT22;1528;52.550;13.408;2022-11-15T11:52:17;13.50;30.30
3037;DHT22;1528;52.550;13.408;2022-11-15T11:55:11;13.60;30.00
3037;DHT22;1528;52.550;13.408;2022-11-15T11:58:04;13.80;29.90
3037;DHT22;1528;52.550;13.408;2022-11-15T12:00:54;13.80;29.80
3037;DHT22;1528;52.550;13.408;2022-11-15T12:03:44;14.00;29.60
3037;DHT22;1528;52.550;13.408;2022-11-15T12:06:35;14.00;30.00
3037;DHT22;1528;52.550;13.408;2022-11-15T12:09:26;14.10;29.70
3037;DHT22;1528;52.550;13.408;2022-11-15T12:12:17;14.10;29.20
3037;DHT22;1528;52.550;13.408;2022-11-15T12:15:12;14.00;29.40
3037;DHT22;1528;52.550;13.408;2022-11-15T12:18:00;14.10;29.90
3037;DHT22;1528;52.550;13.408;2022-11-15T12:20:52;14.10;29.60
3037;DHT22;1528;52.550;13.408;2022-11-15T12:23:41;14.00;29.40
3037;DHT22;1528;52.550;13.408;2022-11-15T12:26:32;14.00;29.60
3037;DHT22;1528;52.550;13.408;2022-11-15T12:29:25;14.10;30.70
3037;DHT22;1528;52.550;13.408;2022-11-15T12:32:23;14.10;29.80
3037;DHT22;1528;52.550;13.408;2022-11-15T12:35:24;14.10;30.10
3037;DHT22;1528;52.550;13.408;2022-11-15T12:38:12;14.20;29.70
3037;DHT22;1528;52.550;13.408;2022-11-15T12:41:14;14.20;30.00
3037;DHT22;1528;52.550;13.408;2022-11-15T12:44:02;14.20;29.60
3037;DHT22;1528;52.550;13.408;2022-11-15T12:47:03;14.30;29.60
3037;DHT22;1528;52.550;13.408;2022-11-15T12:49:49;14.30;29.80
3037;DHT22;1528;52.550;13.408;2022-11-15T12:52:34;14.20;29.80
3037;DHT22;1528;52.550;13.408;2022-11-15T12:55:32;14.30;29.50
3037;DHT22;1528;52.550;13.408;2022-11-15T12:58:27;14.30;30.10
3037;DHT22;1528;52.550;13.408;2022-11-15T13:04:34;14.40;29.90
3037;DHT22;1528;52.550;13.408;2022-11-15T13:10:37;14.40;29.20
3037;DHT22;1528;52.550;13.408;2022-11-15T13:13:42;14.50;29.40
3037;DHT22;1528;52.550;13.408;2022-11-15T13:16:27;14.50;29.60
3037;DHT22;1528;52.550;13.408;2022-11-15T13:19:14;14.40;29.80
3037;DHT22;1528;52.550;13.408;2022-11-15T13:22:04;14.60;29.50
3037;DHT22;1528;52.550;13.408;2022-11-15T13:25:15;14.40;29.90
3037;DHT22;1528;52.550;13.408;2022-11-15T13:28:11;14.30;29.90
3037;DHT22;1528;52.550;13.408;2022-11-15T13:31:18;14.30;29.90
3037;DHT22;1528;52.550;13.408;2022-11-15T13:34:22;14.40;29.90
3037;DHT22;1528;52.550;13.408;2022-11-15T13:37:13;14.30;30.40
3037;DHT22;1528;52.550;13.408;2022-11-15T13:40:21;14.40;30.00
3037;DHT22;1528;52.550;13.408;2022-11-15T13:43:23;14.50;29.80
3037;DHT22;1528;52.550;13.408;2022-11-15T13:46:14;14.60;29.80
3037;DHT22;1528;52.550;13.408;2022-11-15T13:49:03;14.60;29.80
3037;DHT22;1528;52.550;13.408;2022-11-15T13:51:50;14.80;29.90
3037;DHT22;1528;52.550;13.408;2022-11-15T13:54:40;14.70;29.70
3037;DHT22;1528;52.550;13.408;2022-11-15T13:57:30;14.70;29.70
3037;DHT22;1528;52.550;13.408;2022-11-15T14:00:38;14.80;29.50
3037;DHT22;1528;52.550;13.408;2022-11-15T14:03:27;14.70;29.70
3037;DHT22;1528;52.550;13.408;2022-11-15T14:06:15;14.70;29.60
3037;DHT22;1528;52.550;13.408;2022-11-15T14:12:31;14.50;30.20
3037;DHT22;1528;52.550;13.408;2022-11-15T14:15:28;14.50;30.30
3037;DHT22;1528;52.550;13.408;2022-11-15T14:18:40;14.40;30.10
3037;DHT22;1528;52.550;13.408;2022-11-15T14:21:26;14.40;30.10
3037;DHT22;1528;52.550;13.408;2022-11-15T14:24:15;14.40;30.00
3037;DHT22;1528;52.550;13.408;2022-11-15T14:27:16;14.30;30.40
3037;DHT22;1528;52.550;13.408;2022-11-15T14:30:03;14.30;30.70
3037;DHT22;1528;52.550;13.408;2022-11-15T14:32:50;14.20;30.60
3037;DHT22;1528;52.550;13.408;2022-11-15T14:35:38;14.30;30.50
3037;DHT22;1528;52.550;13.408;2022-11-15T14:38:31;14.40;30.70
3037;DHT22;1528;52.550;13.408;2022-11-15T14:41:19;14.30;30.30
3037;DHT22;1528;52.550;13.408;2022-11-15T14:44:06;14.30;30.60
3037;DHT22;1528;52.550;13.408;2022-11-15T14:46:51;14.30;30.60
3037;DHT22;1528;52.550;13.408;2022-11-15T14:49:36;14.10;30.90
3037;DHT22;1528;52.550;13.408;2022-11-15T14:52:28;14.10;31.20
3037;DHT22;1528;52.550;13.408;2022-11-15T14:55:20;14.00;31.30
3037;DHT22;1528;52.550;13.408;2022-11-15T14:58:07;13.90;31.20
3037;DHT22;1528;52.550;13.408;2022-11-15T15:00:53;13.70;31.80
3037;DHT22;1528;52.550;13.408;2022-11-15T15:03:38;13.70;32.20
3037;DHT22;1528;52.550;13.408;2022-11-15T15:06:24;13.50;32.30
3037;DHT22;1528;52.550;13.408;2022-11-15T15:09:11;13.40;32.80
3037;DHT22;1528;52.550;13.408;2022-11-15T15:11:57;13.40;32.60
3037;DHT22;1528;52.550;13.408;2022-11-15T15:14:43;13.30;33.00
3037;DHT22;1528;52.550;13.408;2022-11-15T15:17:28;13.20;33.20
3037;DHT22;1528;52.550;13.408;2022-11-15T15:20:14;13.10;33.40
3037;DHT22;1528;52.550;13.408;2022-11-15T15:22:59;13.00;33.70
3037;DHT22;1528;52.550;13.408;2022-11-15T15:25:47;13.00;33.90
3037;DHT22;1528;52.550;13.408;2022-11-15T15:28:33;13.00;34.00
3037;DHT22;1528;52.550;13.408;2022-11-15T15:31:19;12.90;34.00
3037;DHT22;1528;52.550;13.408;2022-11-15T15:34:04;12.80;34.30
3037;DHT22;1528;52.550;13.408;2022-11-15T15:37:07;12.90;34.40
3037;DHT22;1528;52.550;13.408;2022-11-15T15:39:53;12.90;34.50
3037;DHT22;1528;52.550;13.408;2022-11-15T15:42:40;12.70;34.80
3037;DHT22;1528;52.550;13.408;2022-11-15T15:45:26;12.70;35.10
3037;DHT22;1528;52.550;13.408;2022-11-15T15:48:15;12.60;35.40
3037;DHT22;1528;52.550;13.408;2022-11-15T15:51:01;12.50;35.30
3037;DHT22;1528;52.550;13.408;2022-11-15T15:53:47;12.50;35.50
3037;DHT22;1528;52.550;13.408;2022-11-15T15:56:36;12.40;35.80
3037;DHT22;1528;52.550;13.408;2022-11-15T15:59:23;12.50;35.70
3037;DHT22;1528;52.550;13.408;2022-11-15T16:02:09;12.70;35.60
3037;DHT22;1528;52.550;13.408;2022-11-15T16:04:55;12.70;35.10
3037;DHT22;1528;52.550;13.408;2022-11-15T16:07:41;12.70;34.90
3037;DHT22;1528;52.550;13.408;2022-11-15T16:10:29;12.70;35.20
3037;DHT22;1528;52.550;13.408;2022-11-15T16:13:20;12.50;35.30
3037;DHT22;1528;52.550;13.408;2022-11-15T16:16:21;12.50;35.60
3037;DHT22;1528;52.550;13.408;2022-11-15T16:19:09;12.40;35.90
3037;DHT22;1528;52.550;13.408;2022-11-15T16:21:58;12.40;36.00
3037;DHT22;1528;52.550;13.408;2022-11-15T16:24:44;12.40;36.00
3037;DHT22;1528;52.550;13.408;2022-11-15T16:27:32;12.40;36.00
3037;DHT22;1528;52.550;13.408;2022-11-15T16:30:20;12.40;35.90
3037;DHT22;1528;52.550;13.408;2022-11-15T16:33:12;12.50;36.00
3037;DHT22;1528;52.550;13.408;2022-11-15T16:35:59;12.30;35.90
3037;DHT22;1528;52.550;13.408;2022-11-15T16:38:44;12.30;36.10
3037;DHT22;1528;52.550;13.408;2022-11-15T16:41:30;12.30;36.30
3037;DHT22;1528;52.550;13.408;2022-11-15T16:44:16;12.20;36.20
3037;DHT22;1528;52.550;13.408;2022-11-15T16:47:09;12.30;36.50
3037;DHT22;1528;52.550;13.408;2022-11-15T16:49:57;12.20;36.50
3037;DHT22;1528;52.550;13.408;2022-11-15T16:52:43;12.20;36.50
3037;DHT22;1528;52.550;13.408;2022-11-15T16:55:29;12.20;36.40
3037;DHT22;1528;52.550;13.408;2022-11-15T16:58:14;12.20;36.70
3037;DHT22;1528;52.550;13.408;2022-11-15T17:01:01;11.90;37.00
3037;DHT22;1528;52.550;13.408;2022-11-15T17:03:48;11.80;37.40
3037;DHT22;1528;52.550;13.408;2022-11-15T17:06:35;11.80;37.30
3037;DHT22;1528;52.550;13.408;2022-11-15T17:09:22;11.80;37.50
3037;DHT22;1528;52.550;13.408;2022-11-15T17:12:08;11.80;37.80
3037;DHT22;1528;52.550;13.408;2022-11-15T17:14:54;11.60;37.80
3037;DHT22;1528;52.550;13.408;2022-11-15T17:17:41;11.50;37.80
3037;DHT22;1528;52.550;13.408;2022-11-15T17:20:26;11.50;38.00
3037;DHT22;1528;52.550;13.408;2022-11-15T17:23:15;11.40;38.10
3037;DHT22;1528;52.550;13.408;2022-11-15T17:26:01;11.20;38.60
3037;DHT22;1528;52.550;13.408;2022-11-15T17:28:53;11.20;38.70
3037;DHT22;1528;52.550;13.408;2022-11-15T17:31:39;11.10;38.60
3037;DHT22;1528;52.550;13.408;2022-11-15T17:34:25;10.90;39.00
3037;DHT22;1528;52.550;13.408;2022-11-15T17:37:10;10.80;39.30
3037;DHT22;1528;52.550;13.408;2022-11-15T17:39:59;10.80;39.30
3037;DHT22;1528;52.550;13.408;2022-11-15T17:42:51;10.80;39.10
3037;DHT22;1528;52.550;13.408;2022-11-15T17:45:39;10.60;39.30
3037;DHT22;1528;52.550;13.408;2022-11-15T17:48:25;10.60;39.20
3037;DHT22;1528;52.550;13.408;2022-11-15T17:51:17;10.50;39.40
3037;DHT22;1528;52.550;13.408;2022-11-15T17:54:03;10.60;39.00
3037;DHT22;1528;52.550;13.408;2022-11-15T17:56:51;10.30;39.80
3037;DHT22;1528;52.550;13.408;2022-11-15T17:59:36;10.20;39.70
3037;DHT22;1528;52.550;13.408;2022-11-15T18:02:22;10.10;40.00
3037;DHT22;1528;52.550;13.408;2022-11-15T18:05:10;10.20;39.70
3037;DHT22;1528;52.550;13.408;2022-11-15T18:07:56;10.10;39.70
3037;DHT22;1528;52.550;13.408;2022-11-15T18:10:44;10.10;39.70
3037;DHT22;1528;52.550;13.408;2022-11-15T18:13:32;9.80;41.10
3037;DHT22;1528;52.550;13.408;2022-11-15T18:16:19;9.80;41.40
3037;DHT22;1528;52.550;13.408;2022-11-15T18:19:06;9.70;41.30
3037;DHT22;1528;52.550;13.408;2022-11-15T18:22:10;9.50;41.90
3037;DHT22;1528;52.550;13.408;2022-11-15T18:25:03;9.70;41.60
3037;DHT22;1528;52.550;13.408;2022-11-15T18:27:49;9.50;41.90
3037;DHT22;1528;52.550;13.408;2022-11-15T18:30:39;9.50;42.00
3037;DHT22;1528;52.550;13.408;2022-11-15T18:33:27;9.50;42.10
3037;DHT22;1528;52.550;13.408;2022-11-15T18:36:14;9.50;42.40
3037;DHT22;1528;52.550;13.408;2022-11-15T18:39:02;9.60;41.70
3037;DHT22;1528;52.550;13.408;2022-11-15T18:42:07;9.50;41.70
3037;DHT22;1528;52.550;13.408;2022-11-15T18:44:53;9.60;41.50